Time;durP1;ratioP1;P1;durP2;ratioP2;P2;SDS_P1;SDS_P2;PMS_P1;PMS_P2;Temp;Humidity;BMP_temperature;BMP_pressure;BME280_temperature;BME280_humidity;BME280_pressure;Samples;Min_cycle;Max_cycle;Signal;HPM_P1;HPM_P2
2023/01/08 00:00:49;;;;;;;12.85;9.70;;;21.30;61.70;;;;;;5093120;28;20044;-70
2023/01/08 00:03:15;;;;;;;13.57;9.23;;;21.30;61.70;;;;;;5093475;28;20032;-70
2023/01/08 00:05:41;;;;;;;15.88;8.98;;;21.40;61.50;;;;;;5092897;28;20063;-69
2023/01/08 00:08:08;;;;;;;17.70;9.90;;;21.40;61.40;;;;;;5093344;28;20669;-69
2023/01/08 00:10:35;;;;;;;16.25;9.60;;;21.40;61.20;;;;;;5091517;28;20040;-69
2023/01/08 00:13:01;;;;;;;16.02;9.60;;;21.40;61.20;;;;;;5092793;28;20397;-70
2023/01/08 00:15:28;;;;;;;15.75;9.32;;;21.40;61.10;;;;;;5092466;28;20032;-70
2023/01/08 00:17:56;;;;;;;12.85;9.55;;;21.40;61.10;;;;;;5092703;28;20032;-71
2023/01/08 00:20:22;;;;;;;15.30;10.65;;;21.30;60.90;;;;;;5092685;28;20468;-69
2023/01/08 00:22:49;;;;;;;16.42;10.75;;;21.40;60.80;;;;;;5092723;28;20043;-70
2023/01/08 00:25:15;;;;;;;17.95;11.25;;;21.30;60.80;;;;;;5073054;28;20123;-70
2023/01/08 00:27:42;;;;;;;16.52;10.73;;;21.30;60.80;;;;;;5092823;28;20766;-70
2023/01/08 00:30:08;;;;;;;13.32;9.18;;;21.30;60.90;;;;;;5091296;28;20158;-70
2023/01/08 00:32:34;;;;;;;15.50;10.98;;;21.20;60.80;;;;;;5092845;28;20047;-69
2023/01/08 00:35:00;;;;;;;16.58;9.95;;;21.20;60.70;;;;;;5092864;28;20044;-69
2023/01/08 00:37:27;;;;;;;14.13;9.75;;;21.20;60.70;;;;;;5090912;28;20042;-69
2023/01/08 00:39:53;;;;;;;12.73;9.15;;;21.20;60.50;;;;;;5092189;28;20024;-70
2023/01/08 00:42:20;;;;;;;12.98;9.00;;;21.20;60.50;;;;;;5091939;28;20421;-70
2023/01/08 00:44:46;;;;;;;13.10;8.60;;;21.10;60.50;;;;;;5090964;28;20040;-70
2023/01/08 00:47:12;;;;;;;10.95;8.02;;;21.10;60.60;;;;;;5091844;28;20143;-69
2023/01/08 00:49:38;;;;;;;13.20;7.57;;;21.20;60.60;;;;;;5091681;28;20123;-70
2023/01/08 00:52:04;;;;;;;10.70;7.50;;;21.20;60.30;;;;;;5091521;28;20032;-70
2023/01/08 00:54:30;;;;;;;10.10;7.22;;;21.20;60.30;;;;;;5091455;28;20071;-70
2023/01/08 00:56:56;;;;;;;10.93;6.88;;;21.20;60.10;;;;;;5091288;28;20043;-70
2023/01/08 00:59:22;;;;;;;8.88;5.90;;;21.20;60.20;;;;;;5091869;28;20032;-69
2023/01/08 01:01:48;;;;;;;10.07;6.82;;;21.30;60.10;;;;;;5087540;28;20084;-70
2023/01/08 01:04:14;;;;;;;11.35;6.68;;;21.30;60.20;;;;;;5071933;28;20035;-70
2023/01/08 01:06:41;;;;;;;7.05;6.25;;;21.20;60.10;;;;;;5070298;28;20036;-70
2023/01/08 01:09:07;;;;;;;10.18;6.43;;;21.40;60.10;;;;;;5071063;28;20032;-70
2023/01/08 01:11:34;;;;;;;8.15;6.07;;;21.30;60.20;;;;;;5051745;28;20033;-70
2023/01/08 01:14:00;;;;;;;8.63;6.50;;;21.30;60.00;;;;;;5051639;28;20043;-70
2023/01/08 01:16:26;;;;;;;9.75;6.32;;;21.30;60.00;;;;;;5051633;28;20485;-70
2023/01/08 01:18:53;;;;;;;8.68;6.43;;;21.30;59.80;;;;;;5051795;28;20033;-70
2023/01/08 01:21:26;;;;;;;9.00;6.97;;;21.30;59.60;;;;;;5042924;28;20472;-70
2023/01/08 01:23:53;;;;;;;11.82;6.55;;;21.20;59.60;;;;;;5091846;28;20512;-68
2023/01/08 01:26:20;;;;;;;8.90;6.88;;;21.40;59.90;;;;;;5091540;28;20077;-69
2023/01/08 01:28:48;;;;;;;7.90;5.68;;;21.30;59.80;;;;;;5092080;28;20567;-69
2023/01/08 01:31:14;;;;;;;8.68;6.47;;;21.20;59.60;;;;;;5091840;28;20040;-70
2023/01/08 01:33:41;;;;;;;8.73;6.43;;;21.20;59.40;;;;;;5091595;28;20057;-69
2023/01/08 01:36:08;;;;;;;10.07;6.82;;;21.20;59.70;;;;;;5091690;28;20032;-69
2023/01/08 01:38:34;;;;;;;10.80;7.32;;;21.20;59.80;;;;;;5091537;28;20032;-69
2023/01/08 01:41:00;;;;;;;9.27;6.22;;;21.20;59.70;;;;;;5091552;28;20042;-69
2023/01/08 01:43:41;;;;;;;7.78;6.43;;;21.10;59.70;;;;;;5073566;28;20039;-69
2023/01/08 01:46:29;;;;;;;9.60;7.07;;;21.00;59.60;;;;;;5091355;28;20044;-70
2023/01/08 01:49:01;;;;;;;8.23;6.32;;;21.00;59.60;;;;;;5091619;28;20150;-69
2023/01/08 01:51:31;;;;;;;6.75;5.50;;;21.00;59.60;;;;;;5091388;28;20036;-70
2023/01/08 01:54:00;;;;;;;8.88;6.10;;;21.00;59.50;;;;;;5091266;28;20067;-69
2023/01/08 01:56:27;;;;;;;8.88;5.80;;;21.10;59.60;;;;;;5091163;28;20047;-68
2023/01/08 01:58:54;;;;;;;8.10;6.32;;;21.10;59.50;;;;;;5054731;28;20082;-70
2023/01/08 02:01:20;;;;;;;9.05;6.28;;;21.20;59.30;;;;;;5071299;28;20556;-70
2023/01/08 02:03:46;;;;;;;9.15;6.70;;;21.20;59.30;;;;;;5072500;28;20138;-70
2023/01/08 02:06:34;;;;;;;6.50;5.75;;;21.10;59.10;;;;;;5072212;28;20123;-70
2023/01/08 02:09:40;;;;;;;7.03;5.32;;;21.20;59.10;;;;;;5090433;28;20484;-70
2023/01/08 02:12:15;;;;;;;7.72;6.10;;;21.10;58.90;;;;;;4991531;28;20062;-70
2023/01/08 02:14:57;;;;;;;8.23;6.18;;;21.10;58.80;;;;;;5008040;28;20044;-70
2023/01/08 02:17:35;;;;;;;7.63;5.85;;;21.10;58.90;;;;;;5007664;28;20052;-70
2023/01/08 02:20:16;;;;;;;7.10;5.60;;;21.00;58.80;;;;;;4991694;28;20058;-69
2023/01/08 02:23:33;;;;;;;7.38;5.55;;;21.10;59.00;;;;;;5008103;28;20549;-70
2023/01/08 02:26:12;;;;;;;5.10;4.47;;;21.00;58.90;;;;;;4969130;28;20058;-70
2023/01/08 02:29:02;;;;;;;7.15;5.18;;;21.00;58.90;;;;;;4953132;28;20428;-69
2023/01/08 02:31:30;;;;;;;7.47;5.05;;;21.00;58.90;;;;;;4969312;28;20340;-68
2023/01/08 02:33:56;;;;;;;6.18;4.72;;;20.90;58.90;;;;;;4969222;28;20411;-70
2023/01/08 02:36:25;;;;;;;7.32;4.88;;;20.90;58.70;;;;;;4969137;28;20432;-69
2023/01/08 02:38:54;;;;;;;7.75;5.47;;;21.00;58.70;;;;;;4969164;28;20165;-69
2023/01/08 02:41:27;;;;;;;6.15;4.47;;;21.00;58.30;;;;;;4969190;28;20475;-70
2023/01/08 02:43:57;;;;;;;7.53;4.97;;;21.10;58.50;;;;;;4969163;28;20058;-69
2023/01/08 02:46:29;;;;;;;6.18;5.32;;;21.00;58.30;;;;;;4920957;28;20133;-69
2023/01/08 02:49:02;;;;;;;6.35;4.90;;;21.10;58.40;;;;;;4983760;28;20175;-69
2023/01/08 02:51:47;;;;;;;7.88;4.90;;;21.00;58.20;;;;;;5027919;28;20152;-71
2023/01/08 02:54:23;;;;;;;6.05;5.13;;;21.10;58.10;;;;;;5027669;28;20045;-69
2023/01/08 02:56:57;;;;;;;6.57;4.35;;;21.10;58.10;;;;;;5027919;28;20029;-70
2023/01/08 02:59:24;;;;;;;6.70;4.63;;;21.10;58.00;;;;;;5027782;28;20680;-69
2023/01/08 03:01:51;;;;;;;6.13;4.78;;;21.30;58.10;;;;;;5014844;28;20051;-70
2023/01/08 03:04:21;;;;;;;6.03;4.30;;;21.30;58.20;;;;;;5054465;28;20101;-70
2023/01/08 03:06:47;;;;;;;7.82;4.95;;;21.20;58.10;;;;;;5073888;28;20041;-69
2023/01/08 03:09:15;;;;;;;7.32;5.00;;;21.20;58.00;;;;;;5054262;28;20044;-68
2023/01/08 03:11:58;;;;;;;7.28;5.03;;;21.10;58.10;;;;;;5054266;28;20033;-68
2023/01/08 03:14:27;;;;;;;;;;;21.20;58.20;;;;;;5056060;28;20192;-70
2023/01/08 03:17:07;;;;;;;6.18;4.65;;;21.10;58.10;;;;;;5075977;28;19908;-69
2023/01/08 03:19:49;;;;;;;6.25;4.70;;;21.10;58.20;;;;;;5056127;28;20063;-69
2023/01/08 03:22:16;;;;;;;6.78;5.18;;;21.00;57.90;;;;;;5073849;28;20078;-69
2023/01/08 03:24:47;;;;;;;5.75;4.60;;;21.00;57.80;;;;;;5073500;28;20469;-68
2023/01/08 03:27:17;;;;;;;5.72;4.45;;;21.00;58.00;;;;;;5055538;28;20501;-70
2023/01/08 03:29:47;;;;;;;8.15;5.70;;;21.00;58.10;;;;;;5073740;28;20028;-68
2023/01/08 03:32:17;;;;;;;8.75;5.30;;;21.00;58.00;;;;;;5073926;28;20693;-70
2023/01/08 03:34:45;;;;;;;7.15;5.50;;;21.00;58.10;;;;;;5073531;28;20036;-69
2023/01/08 03:37:14;;;;;;;6.38;4.88;;;21.00;58.10;;;;;;5037759;28;20079;-69
2023/01/08 03:39:48;;;;;;;6.20;5.35;;;21.00;58.10;;;;;;5073380;28;20064;-70
2023/01/08 03:42:18;;;;;;;6.13;5.20;;;21.00;58.10;;;;;;5073779;28;20028;-69
2023/01/08 03:44:44;;;;;;;7.75;5.18;;;21.10;57.90;;;;;;5073444;28;20048;-70
2023/01/08 03:47:11;;;;;;;6.65;5.25;;;21.10;57.80;;;;;;5055641;28;20086;-69
2023/01/08 03:49:40;;;;;;;7.35;4.70;;;21.20;58.00;;;;;;5037647;28;20497;-69
2023/01/08 03:52:06;;;;;;;7.68;5.07;;;21.10;57.90;;;;;;5073588;28;20028;-69
2023/01/08 03:54:36;;;;;;;5.97;4.93;;;21.10;57.80;;;;;;5055297;28;20021;-69
2023/01/08 03:57:02;;;;;;;5.95;4.78;;;21.10;57.70;;;;;;5073075;28;20371;-68
2023/01/08 03:59:28;;;;;;;5.50;4.40;;;21.20;57.60;;;;;;5073458;28;20489;-67
2023/01/08 04:01:54;;;;;;;9.02;5.43;;;21.10;57.70;;;;;;5073093;28;20067;-69
2023/01/08 04:04:20;;;;;;;5.97;4.35;;;21.20;57.50;;;;;;5072874;28;20033;-69
2023/01/08 04:06:46;;;;;;;6.10;4.80;;;21.10;57.70;;;;;;5071680;28;20389;-68
2023/01/08 04:09:11;;;;;;;4.85;4.15;;;21.20;57.60;;;;;;5071789;28;20654;-69
2023/01/08 04:11:37;;;;;;;7.40;5.50;;;21.00;57.70;;;;;;5072088;28;20112;-69
2023/01/08 04:14:03;;;;;;;5.57;4.60;;;21.00;57.80;;;;;;5072953;28;20123;-69
2023/01/08 04:16:30;;;;;;;6.55;4.90;;;21.00;58.00;;;;;;5073041;28;20060;-69
2023/01/08 04:18:56;;;;;;;6.45;5.15;;;20.90;57.80;;;;;;5019866;28;20045;-69
2023/01/08 04:21:22;;;;;;;7.43;4.68;;;20.90;58.00;;;;;;5072999;28;20374;-69
2023/01/08 04:23:48;;;;;;;7.78;5.43;;;20.80;58.00;;;;;;5072836;28;20033;-69
2023/01/08 04:26:14;;;;;;;8.48;5.60;;;20.90;57.80;;;;;;5054942;28;20067;-69
2023/01/08 04:28:40;;;;;;;6.90;4.57;;;20.90;58.10;;;;;;5072660;28;20024;-68
2023/01/08 04:31:07;;;;;;;5.65;3.38;;;20.80;57.80;;;;;;5072943;28;20166;-69
2023/01/08 04:33:34;;;;;;;6.22;3.85;;;20.80;57.80;;;;;;5072443;28;20036;-70
2023/01/08 04:36:00;;;;;;;7.63;4.03;;;20.90;58.00;;;;;;5072388;28;20052;-69
2023/01/08 04:38:26;;;;;;;7.68;4.40;;;20.90;57.90;;;;;;5072614;28;20029;-69
2023/01/08 04:40:57;;;;;;;5.75;3.95;;;20.90;57.70;;;;;;5020257;28;20049;-69
2023/01/08 04:43:23;;;;;;;7.05;4.97;;;21.00;57.60;;;;;;5072468;28;20040;-70
2023/01/08 04:45:49;;;;;;;6.97;4.72;;;21.10;57.50;;;;;;5072241;28;20044;-70
2023/01/08 04:48:15;;;;;;;8.82;5.00;;;21.00;57.30;;;;;;5072143;28;20078;-69
2023/01/08 04:50:41;;;;;;;5.32;3.58;;;21.30;57.50;;;;;;5072062;28;20044;-70
2023/01/08 04:53:07;;;;;;;5.10;4.05;;;21.20;57.40;;;;;;5072513;28;20473;-72
2023/01/08 04:55:33;;;;;;;7.55;4.75;;;21.20;57.50;;;;;;5036426;28;20040;-71
2023/01/08 04:57:59;;;;;;;7.32;5.15;;;21.30;57.10;;;;;;5054486;28;20078;-72
2023/01/08 05:00:25;;;;;;;7.45;5.10;;;21.50;56.80;;;;;;5072076;28;20036;-70
2023/01/08 05:02:51;;;;;;;6.03;4.38;;;21.60;56.60;;;;;;5072026;28;20735;-70
2023/01/08 05:05:17;;;;;;;7.60;4.68;;;21.70;56.70;;;;;;5071819;28;20048;-69
2023/01/08 05:07:43;;;;;;;6.70;4.18;;;21.80;56.60;;;;;;5071851;28;20040;-70
2023/01/08 05:10:09;;;;;;;6.38;4.25;;;21.90;56.60;;;;;;5062405;28;20054;-70
2023/01/08 05:12:35;;;;;;;7.25;4.75;;;21.90;56.50;;;;;;5051587;28;20040;-69
2023/01/08 05:15:01;;;;;;;5.45;4.72;;;22.00;56.50;;;;;;5051134;28;20426;-69
2023/01/08 05:17:27;;;;;;;6.10;4.00;;;22.10;56.80;;;;;;5051015;28;20041;-69
2023/01/08 05:19:53;;;;;;;5.72;4.90;;;22.30;62.10;;;;;;4999564;28;20086;-69
2023/01/08 05:22:19;;;;;;;5.97;3.95;;;22.80;64.20;;;;;;5048318;28;20100;-69
2023/01/08 05:24:45;;;;;;;5.85;4.43;;;23.10;65.30;;;;;;5071004;28;20048;-69
2023/01/08 05:27:11;;;;;;;5.18;3.92;;;23.30;60.70;;;;;;5071464;28;20027;-69
2023/01/08 05:29:37;;;;;;;8.20;4.85;;;23.10;56.60;;;;;;5071301;28;20032;-70
2023/01/08 05:32:03;;;;;;;6.30;4.30;;;23.20;55.00;;;;;;5071148;28;20165;-69
2023/01/08 05:34:29;;;;;;;6.30;4.68;;;23.00;53.60;;;;;;5071196;28;20025;-68
2023/01/08 05:36:55;;;;;;;5.60;4.57;;;22.90;53.10;;;;;;5071302;28;20025;-69
2023/01/08 05:39:21;;;;;;;4.75;4.20;;;22.90;53.00;;;;;;5070986;28;20059;-68
2023/01/08 05:41:47;;;;;;;4.00;3.05;;;22.80;53.30;;;;;;5071291;28;20044;-71
2023/01/08 05:44:13;;;;;;;4.80;4.13;;;22.80;53.80;;;;;;5071001;28;20359;-69
2023/01/08 05:46:39;;;;;;;6.18;3.53;;;22.70;54.20;;;;;;5052069;28;20094;-67
2023/01/08 05:49:05;;;;;;;6.30;4.30;;;22.70;54.80;;;;;;5070897;28;20104;-70
2023/01/08 05:51:31;;;;;;;3.55;2.75;;;22.80;55.20;;;;;;5071276;28;20117;-69
2023/01/08 05:53:57;;;;;;;4.43;3.30;;;22.70;55.10;;;;;;5071085;28;20067;-68
2023/01/08 05:56:22;;;;;;;4.40;3.45;;;22.70;56.00;;;;;;5070898;28;20410;-69
2023/01/08 05:58:48;;;;;;;2.75;2.50;;;22.70;56.10;;;;;;5070742;28;20035;-69
2023/01/08 06:01:15;;;;;;;5.28;3.35;;;22.80;56.10;;;;;;5053286;28;20063;-70
2023/01/08 06:03:41;;;;;;;5.22;3.92;;;22.80;55.90;;;;;;5070743;28;20036;-71
2023/01/08 06:06:09;;;;;;;5.85;4.35;;;22.80;55.90;;;;;;5070943;28;20131;-70
2023/01/08 06:08:35;;;;;;;7.72;5.53;;;22.80;49.60;;;;;;5071105;28;20476;-71
2023/01/08 06:11:05;;;;;;;4.53;4.03;;;22.60;47.00;;;;;;5070910;28;20052;-70
2023/01/08 06:13:31;;;;;;;5.65;3.58;;;22.50;46.80;;;;;;5070979;28;20067;-70
2023/01/08 06:16:01;;;;;;;3.88;3.42;;;22.40;46.60;;;;;;5070675;28;20032;-71
2023/01/08 06:18:29;;;;;;;5.00;3.42;;;22.50;46.00;;;;;;5070907;28;20044;-72
2023/01/08 06:20:55;;;;;;;5.90;3.80;;;22.50;47.70;;;;;;5071037;28;20074;-69
2023/01/08 06:23:21;;;;;;;6.05;4.00;;;22.50;47.90;;;;;;5070932;28;20036;-71
2023/01/08 06:25:54;;;;;;;5.63;4.18;;;22.50;46.30;;;;;;5070815;28;20078;-70
2023/01/08 06:28:21;;;;;;;6.50;4.95;;;22.30;46.60;;;;;;5070888;28;20079;-70
2023/01/08 06:30:48;;;;;;;6.65;5.88;;;22.30;46.60;;;;;;5070550;28;20036;-70
2023/01/08 06:33:14;;;;;;;16.35;10.95;;;22.30;47.20;;;;;;5070730;28;20041;-71
2023/01/08 06:35:40;;;;;;;18.15;10.02;;;22.30;46.40;;;;;;5088775;28;20093;-70
2023/01/08 06:38:06;;;;;;;4.88;3.83;;;22.20;44.80;;;;;;5090954;28;20365;-73
2023/01/08 06:40:32;;;;;;;9.43;6.00;;;22.20;45.10;;;;;;5090985;28;20041;-73
2023/01/08 06:43:05;;;;;;;7.15;4.35;;;22.10;44.40;;;;;;5037789;28;20072;-70
2023/01/08 06:45:31;;;;;;;5.68;3.90;;;22.20;56.50;;;;;;5090804;28;20134;-70
2023/01/08 06:48:02;;;;;;;1.98;1.58;;;22.40;58.60;;;;;;5072935;28;20028;-72
2023/01/08 06:50:29;;;;;;;5.00;3.08;;;22.70;59.40;;;;;;5091001;28;20481;-74
2023/01/08 06:52:56;;;;;;;5.07;2.63;;;22.70;59.30;;;;;;5090902;28;20032;-73
2023/01/08 06:55:23;;;;;;;5.07;3.75;;;22.80;61.40;;;;;;5090484;28;20119;-77
2023/01/08 06:57:57;;;;;;;5.35;3.15;;;23.00;58.00;;;;;;5090606;28;20180;-75
2023/01/08 07:00:25;;;;;;;3.85;2.42;;;22.80;55.90;;;;;;5087603;28;20043;-71
2023/01/08 07:02:54;;;;;;;4.82;3.17;;;22.80;53.90;;;;;;5038078;28;20037;-69
2023/01/08 07:05:20;;;;;;;5.95;4.25;;;22.90;52.60;;;;;;5052171;28;20048;-69
2023/01/08 07:07:46;;;;;;;4.90;3.45;;;22.90;51.90;;;;;;5051509;28;20041;-69
2023/01/08 07:10:13;;;;;;;3.95;2.55;;;22.90;51.90;;;;;;5050363;28;20044;-70
2023/01/08 07:12:39;;;;;;;4.85;3.58;;;22.90;52.20;;;;;;5050700;28;20485;-69
2023/01/08 07:15:05;;;;;;;3.17;2.45;;;22.80;52.50;;;;;;5050500;28;20036;-68
2023/01/08 07:17:32;;;;;;;1.33;1.25;;;22.90;52.10;;;;;;5058490;28;20495;-69
2023/01/08 07:19:58;;;;;;;3.72;3.30;;;23.00;52.10;;;;;;5048204;28;20036;-69
2023/01/08 07:22:24;;;;;;;5.00;3.17;;;22.90;51.60;;;;;;5061871;28;20481;-70
2023/01/08 07:24:51;;;;;;;7.45;3.78;;;22.90;51.80;;;;;;5049105;28;20044;-69
2023/01/08 07:27:17;;;;;;;4.95;3.42;;;22.80;52.00;;;;;;5056866;28;20020;-69
2023/01/08 07:29:43;;;;;;;6.70;4.03;;;22.80;54.40;;;;;;5035081;28;20087;-68
2023/01/08 07:32:10;;;;;;;7.13;4.78;;;22.80;56.00;;;;;;5054648;28;20028;-68
2023/01/08 07:34:36;;;;;;;7.28;4.07;;;22.90;55.50;;;;;;5064684;28;20112;-71
2023/01/08 07:37:02;;;;;;;4.05;3.40;;;22.80;55.60;;;;;;5049557;28;20119;-70
2023/01/08 07:39:29;;;;;;;7.63;4.47;;;22.80;56.40;;;;;;5050271;28;20021;-69
2023/01/08 07:41:55;;;;;;;6.78;4.60;;;22.90;57.00;;;;;;5030940;28;20049;-71
2023/01/08 07:44:21;;;;;;;5.40;3.90;;;22.80;56.30;;;;;;5053173;28;20037;-67
2023/01/08 07:46:47;;;;;;;5.72;4.25;;;22.50;57.40;;;;;;5014766;28;20044;-68
2023/01/08 07:49:13;;;;;;;5.63;3.22;;;22.50;58.10;;;;;;5049705;28;20107;-71
2023/01/08 07:51:39;;;;;;;5.00;3.67;;;22.40;58.40;;;;;;5060317;28;20513;-71
2023/01/08 07:54:05;;;;;;;6.93;3.75;;;22.50;58.30;;;;;;5038404;28;20052;-70
2023/01/08 07:56:31;;;;;;;6.68;4.85;;;22.50;58.20;;;;;;5069773;28;20025;-70
2023/01/08 07:58:57;;;;;;;5.82;3.22;;;22.60;57.20;;;;;;5076763;28;20055;-68
2023/01/08 08:01:24;;;;;;;6.30;4.57;;;22.60;57.10;;;;;;5086956;28;20119;-70
2023/01/08 08:03:51;;;;;;;5.32;3.70;;;22.60;57.70;;;;;;5046668;28;20032;-71
2023/01/08 08:06:17;;;;;;;6.15;4.47;;;22.60;58.50;;;;;;5052014;28;20037;-73
2023/01/08 08:08:43;;;;;;;6.60;3.65;;;22.50;59.20;;;;;;5052635;28;20041;-70
2023/01/08 08:11:09;;;;;;;5.13;3.78;;;22.50;62.10;;;;;;5052354;28;20494;-73
2023/01/08 08:13:36;;;;;;;4.00;3.17;;;22.60;62.00;;;;;;5063518;28;20082;-70
2023/01/08 08:16:03;;;;;;;5.75;4.05;;;22.60;61.40;;;;;;5069538;28;20093;-70
2023/01/08 08:18:30;;;;;;;4.53;3.60;;;22.60;59.10;;;;;;5020878;28;20044;-70
2023/01/08 08:20:56;;;;;;;4.18;2.88;;;22.70;60.80;;;;;;5054538;28;20377;-68
2023/01/08 08:23:22;;;;;;;5.82;3.72;;;22.70;60.40;;;;;;5073061;28;20059;-71
2023/01/08 08:25:50;;;;;;;4.07;3.33;;;22.70;60.20;;;;;;5072825;28;20029;-69
2023/01/08 08:28:17;;;;;;;11.15;3.90;;;22.70;60.00;;;;;;5072795;28;20047;-70
2023/01/08 08:30:43;;;;;;;4.65;3.65;;;22.80;58.70;;;;;;5072797;28;20124;-68
2023/01/08 08:33:09;;;;;;;4.32;3.20;;;22.80;58.50;;;;;;5054738;28;20131;-69
2023/01/08 08:35:35;;;;;;;4.50;3.42;;;22.70;58.80;;;;;;5072571;28;20115;-68
2023/01/08 08:38:02;;;;;;;4.60;3.03;;;22.80;60.40;;;;;;5072724;28;20474;-70
2023/01/08 08:40:28;;;;;;;5.32;3.67;;;22.70;59.30;;;;;;5072687;28;20478;-68
2023/01/08 08:42:56;;;;;;;5.53;4.20;;;22.80;58.50;;;;;;5072748;28;20041;-69
2023/01/08 08:45:22;;;;;;;4.80;2.65;;;22.80;59.80;;;;;;5072622;28;20076;-69
2023/01/08 08:47:48;;;;;;;5.72;3.85;;;22.80;60.40;;;;;;5072366;28;20086;-69
2023/01/08 08:50:14;;;;;;;4.68;3.13;;;22.80;60.10;;;;;;5072334;28;20405;-69
2023/01/08 08:52:40;;;;;;;6.47;4.32;;;22.90;60.20;;;;;;5072478;28;20027;-69
2023/01/08 08:55:06;;;;;;;4.55;3.55;;;23.00;60.40;;;;;;5072239;28;20044;-68
2023/01/08 08:57:32;;;;;;;3.20;2.40;;;22.90;60.50;;;;;;5060725;28;20033;-69
2023/01/08 08:59:58;;;;;;;5.55;4.13;;;22.90;60.00;;;;;;5052155;28;20378;-71
2023/01/08 09:02:25;;;;;;;6.20;4.25;;;23.00;60.30;;;;;;5034429;28;20025;-69
2023/01/08 09:04:50;;;;;;;4.43;3.55;;;23.00;60.20;;;;;;5033253;28;20056;-70
2023/01/08 09:07:16;;;;;;;3.92;2.38;;;23.00;60.00;;;;;;5034291;28;20033;-70
2023/01/08 09:09:42;;;;;;;9.98;4.53;;;23.00;60.10;;;;;;5052099;28;20610;-70
2023/01/08 09:12:08;;;;;;;5.10;3.83;;;23.10;60.10;;;;;;5052128;28;20033;-69
2023/01/08 09:14:34;;;;;;;5.82;4.18;;;23.20;60.20;;;;;;5051839;28;20042;-70
2023/01/08 09:17:00;;;;;;;7.38;2.88;;;23.30;60.40;;;;;;5054044;28;20028;-73
2023/01/08 09:19:26;;;;;;;5.07;4.30;;;23.30;60.30;;;;;;5051669;28;20503;-75
2023/01/08 09:21:52;;;;;;;7.80;3.53;;;23.20;59.90;;;;;;5052045;28;20355;-72
2023/01/08 09:24:18;;;;;;;8.40;5.50;;;23.30;54.80;;;;;;5054534;28;20057;-73
2023/01/08 09:26:44;;;;;;;5.82;4.13;;;23.30;45.50;;;;;;5073240;28;20032;-73
2023/01/08 09:29:10;;;;;;;14.25;7.30;;;23.40;47.80;;;;;;5072080;28;20035;-70
2023/01/08 09:31:36;;;;;;;15.02;8.73;;;23.30;45.50;;;;;;5071568;28;20047;-72
2023/01/08 09:34:02;;;;;;;11.25;7.50;;;23.50;47.10;;;;;;5071478;28;20040;-70
2023/01/08 09:36:28;;;;;;;15.95;8.00;;;23.60;52.30;;;;;;5064160;28;20493;-71
2023/01/08 09:38:54;;;;;;;10.10;7.20;;;23.60;46.40;;;;;;5060605;28;20064;-71
2023/01/08 09:41:27;;;;;;;10.23;5.70;;;23.70;46.30;;;;;;5033692;28;20056;-71
2023/01/08 09:43:55;;;;;;;4.90;4.18;;;23.80;43.40;;;;;;5051352;28;20037;-70
2023/01/08 09:46:24;;;;;;;8.75;4.85;;;23.80;52.80;;;;;;5053478;28;20547;-73
2023/01/08 09:48:52;;;;;;;6.50;4.43;;;23.90;55.50;;;;;;5070734;28;20028;-73
2023/01/08 09:51:19;;;;;;;9.77;4.50;;;23.90;56.00;;;;;;5069134;28;20075;-71
2023/01/08 09:53:53;;;;;;;6.10;4.03;;;24.00;56.20;;;;;;5067392;28;20037;-72
2023/01/08 09:56:20;;;;;;;6.35;3.88;;;24.00;56.60;;;;;;5058684;28;20060;-72
2023/01/08 09:58:49;;;;;;;6.28;3.88;;;23.90;56.90;;;;;;5051114;28;20037;-71
2023/01/08 10:01:36;;;;;;;4.68;3.70;;;24.00;56.90;;;;;;5033139;28;20064;-71
2023/01/08 10:04:10;;;;;;;5.00;3.40;;;24.00;56.40;;;;;;5050901;28;20040;-75
2023/01/08 10:06:36;;;;;;;9.48;4.25;;;23.90;56.70;;;;;;5051622;28;20045;-72
2023/01/08 10:09:02;;;;;;;7.07;5.10;;;23.90;57.40;;;;;;5064353;28;20037;-71
2023/01/08 10:11:39;;;;;;;4.22;3.38;;;23.90;57.50;;;;;;5050878;28;20040;-72
2023/01/08 10:14:28;;;;;;;7.15;3.55;;;23.90;57.70;;;;;;5051285;28;20029;-72
2023/01/08 10:17:02;;;;;;;14.15;7.43;;;23.90;58.10;;;;;;5031609;28;20044;-71
2023/01/08 10:19:28;;;;;;;17.52;9.95;;;23.90;46.20;;;;;;5051203;28;20029;-73
2023/01/08 10:21:56;;;;;;;17.90;9.77;;;23.80;43.20;;;;;;5063698;28;20079;-73
2023/01/08 10:24:38;;;;;;;11.95;5.35;;;23.90;45.20;;;;;;5014035;28;20079;-71
2023/01/08 10:27:06;;;;;;;7.43;5.20;;;23.70;43.30;;;;;;5038713;28;20040;-72
2023/01/08 10:29:32;;;;;;;10.85;5.90;;;23.60;52.20;;;;;;5069443;28;20388;-71
2023/01/08 10:32:03;;;;;;;12.75;5.15;;;23.90;48.60;;;;;;5027517;28;20041;-73
2023/01/08 10:34:43;;;;;;;12.38;6.35;;;24.40;62.90;;;;;;5016904;28;20041;-68
2023/01/08 10:37:35;;;;;;;9.73;6.10;;;24.50;41.90;;;;;;5063508;28;20032;-71
2023/01/08 10:40:16;;;;;;;9.95;4.88;;;24.20;41.10;;;;;;5030279;28;20140;-65
2023/01/08 10:42:43;;;;;;;6.50;4.97;;;24.50;56.60;;;;;;5027172;28;20061;-68
2023/01/08 10:45:24;;;;;;;4.22;3.33;;;24.80;52.90;;;;;;5027248;28;20052;-70
2023/01/08 10:47:55;;;;;;;6.63;4.25;;;25.10;53.90;;;;;;5044736;28;20060;-70
2023/01/08 10:50:31;;;;;;;7.82;4.93;;;24.90;44.60;;;;;;5031104;28;20037;-71
2023/01/08 10:53:05;;;;;;;10.65;5.13;;;24.70;52.00;;;;;;5041955;28;20038;-70
2023/01/08 10:55:36;;;;;;;7.47;4.72;;;24.90;47.50;;;;;;5050388;28;20490;-71
2023/01/08 10:58:08;;;;;;;3.67;3.05;;;24.70;41.60;;;;;;5028360;28;20048;-69
2023/01/08 11:00:35;;;;;;;7.38;4.25;;;24.60;39.40;;;;;;5048362;28;20122;-72
2023/01/08 11:03:05;;;;;;;5.60;4.07;;;24.30;38.70;;;;;;5056088;28;20227;-72
2023/01/08 11:05:35;;;;;;;10.07;4.57;;;24.20;39.30;;;;;;5031700;28;20049;-68
2023/01/08 11:08:05;;;;;;;9.90;3.58;;;24.10;41.80;;;;;;5045634;28;20044;-69
2023/01/08 11:10:34;;;;;;;6.80;3.60;;;24.10;40.30;;;;;;5077959;28;20072;-70
2023/01/08 11:13:06;;;;;;;7.90;5.40;;;24.10;49.50;;;;;;5083698;28;20134;-69
2023/01/08 11:15:42;;;;;;;5.43;4.15;;;24.20;53.50;;;;;;5095846;28;20031;-70
2023/01/08 11:18:21;;;;;;;5.55;3.42;;;24.30;54.10;;;;;;5104742;28;20103;-70
2023/01/08 11:20:48;;;;;;;7.20;4.97;;;24.40;54.60;;;;;;5103839;28;20418;-72
2023/01/08 11:23:23;;;;;;;2.50;2.30;;;24.40;54.80;;;;;;5090559;28;20059;-71
2023/01/08 11:26:01;;;;;;;4.00;2.30;;;24.30;55.00;;;;;;5090405;28;20373;-71
2023/01/08 11:29:06;;;;;;;8.05;4.03;;;24.30;55.80;;;;;;5083834;28;20485;-71
2023/01/08 11:31:58;;;;;;;6.55;4.85;;;24.40;55.90;;;;;;5106902;28;20031;-72
2023/01/08 11:34:35;;;;;;;5.63;3.47;;;24.30;55.60;;;;;;5114628;28;20533;-72
2023/01/08 11:37:20;;;;;;;8.60;5.13;;;24.20;54.30;;;;;;5113605;28;20039;-72
2023/01/08 11:39:47;;;;;;;8.77;5.25;;;24.20;56.60;;;;;;5114553;28;20036;-70
2023/01/08 11:42:16;;;;;;;7.22;4.75;;;24.20;56.70;;;;;;5114622;28;20028;-70
2023/01/08 11:45:00;;;;;;;5.15;3.47;;;24.20;57.20;;;;;;5114342;28;20071;-71
2023/01/08 11:47:50;;;;;;;5.45;3.00;;;24.00;57.70;;;;;;5101848;28;20875;-70
2023/01/08 11:50:56;;;;;;;8.75;4.53;;;24.10;57.90;;;;;;5072403;28;20043;-69
2023/01/08 11:53:54;;;;;;;8.55;5.45;;;24.00;58.00;;;;;;5100053;28;20043;-71
2023/01/08 11:56:20;;;;;;;7.50;4.65;;;24.00;57.80;;;;;;5101324;28;20031;-71
2023/01/08 11:59:07;;;;;;;5.93;3.97;;;23.90;58.10;;;;;;5104746;28;20119;-70
2023/01/08 12:01:47;;;;;;;9.07;4.80;;;24.00;58.20;;;;;;5113606;28;20044;-72
2023/01/08 12:04:28;;;;;;;6.05;4.50;;;24.10;58.30;;;;;;5073499;28;20033;-73
2023/01/08 12:07:24;;;;;;;6.60;3.85;;;24.00;57.80;;;;;;5073472;28;20049;-72
2023/01/08 12:10:21;;;;;;;10.30;5.47;;;24.00;57.90;;;;;;5066478;28;20436;-73
2023/01/08 12:13:12;;;;;;;9.95;6.40;;;24.10;58.00;;;;;;5053188;28;20580;-73
2023/01/08 12:16:12;;;;;;;6.50;4.22;;;24.00;56.70;;;;;;5053292;28;20036;-75
2023/01/08 12:19:15;;;;;;;7.65;4.50;;;23.90;60.30;;;;;;5053162;28;20033;-72
2023/01/08 12:22:06;;;;;;;17.33;4.40;;;23.90;61.60;;;;;;5052888;28;20086;-69
2023/01/08 12:24:42;;;;;;;8.98;5.78;;;23.90;59.50;;;;;;5053011;28;20033;-71
2023/01/08 12:27:27;;;;;;;4.60;3.15;;;23.90;58.90;;;;;;5052793;28;20470;-72
2023/01/08 12:30:02;;;;;;;7.47;5.22;;;24.00;57.90;;;;;;5017213;28;20105;-73
2023/01/08 12:33:01;;;;;;;5.68;4.30;;;23.90;57.00;;;;;;5052799;28;20451;-73
2023/01/08 12:35:40;;;;;;;7.70;4.10;;;23.90;57.00;;;;;;5034867;28;20035;-74
2023/01/08 12:38:19;;;;;;;8.63;4.70;;;23.90;56.40;;;;;;5052673;28;20091;-71
2023/01/08 12:40:55;;;;;;;5.63;4.28;;;23.90;56.90;;;;;;5051681;28;20474;-72
2023/01/08 12:43:44;;;;;;;5.05;2.67;;;23.90;56.50;;;;;;5052570;28;20417;-71
2023/01/08 12:46:15;;;;;;;6.03;3.90;;;23.70;57.40;;;;;;5033433;28;20055;-71
2023/01/08 12:48:44;;;;;;;4.78;3.15;;;24.00;57.20;;;;;;5052383;28;20029;-71
2023/01/08 12:51:18;;;;;;;9.32;4.35;;;23.90;57.40;;;;;;5052599;28;20032;-70
2023/01/08 12:53:50;;;;;;;3.72;2.75;;;23.90;56.80;;;;;;5034395;28;20394;-70
2023/01/08 12:56:45;;;;;;;5.00;4.43;;;24.00;57.70;;;;;;5052528;28;20041;-71
2023/01/08 12:59:27;;;;;;;8.25;4.57;;;23.90;56.70;;;;;;4970696;28;20042;-71
2023/01/08 13:02:23;;;;;;;4.67;2.73;;;24.00;57.60;;;;;;4971180;28;20047;-71